Time;durP1;ratioP1;P1;durP2;ratioP2;P2;SDS_P1;SDS_P2;PMS_P1;PMS_P2;Temp;Humidity;BMP_temperature;BMP_pressure;BME280_temperature;BME280_humidity;BME280_pressure;Samples;Min_cycle;Max_cycle;Signal;HPM_P1;HPM_P2
2024/01/10 00:12:45;;;;;;;7.65;5.72;;;;;;;20.06;49.27;101972.69;41224953;28;20094;-77
2024/01/10 00:32:48;;;;;;;9.15;6.07;;;;;;;19.99;49.88;101984.41;41295440;28;20129;-77
2024/01/10 00:52:48;;;;;;;8.25;6.18;;;;;;;19.99;49.77;101985.28;41359053;28;20497;-78
2024/01/10 01:12:49;;;;;;;8.30;5.93;;;;;;;19.91;50.15;101986.53;41371230;28;20046;-77
2024/01/10 01:32:52;;;;;;;8.00;5.90;;;;;;;19.94;50.09;101995.16;41377825;28;20246;-76
2024/01/10 01:52:54;;;;;;;8.38;5.90;;;;;;;19.95;50.13;101982.88;41361035;28;20050;-77
2024/01/10 02:12:55;;;;;;;8.95;6.20;;;;;;;19.98;50.01;101985.34;41359426;28;20046;-77
2024/01/10 02:32:56;;;;;;;9.07;6.10;;;;;;;19.89;50.03;101972.63;41360532;28;20046;-78
2024/01/10 02:52:56;;;;;;;8.68;6.45;;;;;;;19.89;50.27;101964.75;41371165;28;20046;-77
2024/01/10 03:12:56;;;;;;;10.35;6.70;;;;;;;19.94;49.93;101975.91;41379546;28;20394;-76
2024/01/10 03:32:58;;;;;;;9.18;6.72;;;;;;;19.89;49.84;101972.63;41404247;28;20648;-76
2024/01/10 03:52:58;;;;;;;8.27;6.07;;;;;;;19.99;49.76;101969.50;41391643;28;20050;-76
2024/01/10 04:13:00;;;;;;;8.25;6.28;;;;;;;19.97;49.38;101967.88;41358615;28;20038;-77
2024/01/10 04:33:03;;;;;;;9.65;6.07;;;;;;;19.83;49.66;101966.75;41379224;28;20120;-76
2024/01/10 04:53:03;;;;;;;8.32;6.07;;;;;;;19.92;49.39;101997.00;41385290;28;20401;-76
2024/01/10 05:13:04;;;;;;;9.10;6.60;;;;;;;20.02;48.95;102002.69;41359245;28;20084;-74
2024/01/10 05:33:04;;;;;;;12.38;6.35;;;;;;;20.84;48.33;102003.19;41340639;28;20101;-77
2024/01/10 05:53:08;;;;;;;21.02;8.70;;;;;;;20.81;47.71;101992.81;41367192;28;20412;-74
2024/01/10 06:13:08;;;;;;;17.90;9.35;;;;;;;20.27;44.07;102004.16;41364337;28;20045;-78
2024/01/10 06:33:08;;;;;;;22.92;8.93;;;;;;;20.88;42.80;101997.66;41392304;28;20061;-76
2024/01/10 06:53:09;;;;;;;16.95;8.90;;;;;;;20.99;42.65;102020.84;41402337;28;20041;-75
2024/01/10 07:13:10;;;;;;;13.75;7.72;;;;;;;21.21;43.39;102028.47;41430569;28;20049;-75
2024/01/10 07:33:11;;;;;;;13.45;7.47;;;;;;;21.34;43.70;102030.50;41427050;28;20038;-72
2024/01/10 07:53:11;;;;;;;11.80;7.43;;;;;;;21.41;43.62;102038.00;41427175;28;20068;-74
2024/01/10 08:13:12;;;;;;;12.55;7.35;;;;;;;21.46;43.46;102042.16;41422835;28;20134;-76
2024/01/10 08:33:12;;;;;;;10.13;7.47;;;;;;;21.56;43.36;102056.59;41402357;28;20050;-78
2024/01/10 08:53:13;;;;;;;14.68;8.60;;;;;;;21.47;44.24;102065.84;41379916;28;20041;-72
2024/01/10 09:13:14;;;;;;;13.35;8.30;;;;;;;21.48;44.11;102051.69;41364004;28;20065;-73
2024/01/10 09:33:15;;;;;;;13.30;9.23;;;;;;;21.67;43.23;102035.81;41340657;28;20174;-69
2024/01/10 09:53:40;;;;;;;14.40;9.00;;;;;;;21.81;42.92;102015.75;41345393;28;20099;-70
2024/01/10 10:13:41;;;;;;;12.60;8.70;;;;;;;21.89;42.54;102000.38;41187594;28;20061;-69
2024/01/10 10:33:43;;;;;;;12.18;9.05;;;;;;;21.98;42.43;101988.44;41200872;28;20054;-70
2024/01/10 10:53:45;;;;;;;12.75;8.55;;;;;;;22.11;41.87;101959.63;41216085;28;20058;-70
2024/01/10 11:14:04;;;;;;;10.98;8.30;;;;;;;22.32;41.76;101939.06;41373714;28;20081;-69
2024/01/10 11:34:05;;;;;;;10.00;8.32;;;;;;;22.32;42.25;101921.41;41373585;28;20049;-70
2024/01/10 11:54:05;;;;;;;9.18;7.25;;;;;;;22.44;42.04;101903.22;41369189;28;20046;-69
2024/01/10 12:14:07;;;;;;;10.48;7.85;;;;;;;22.53;41.92;101884.19;41360624;28;20045;-70
2024/01/10 12:34:09;;;;;;;10.68;7.53;;;;;;;22.62;41.35;101878.38;41349594;28;20037;-70
2024/01/10 12:54:09;;;;;;;12.90;7.28;;;;;;;22.54;41.54;101867.41;41361729;28;20105;-72
2024/01/10 13:14:09;;;;;;;13.88;7.05;;;;;;;22.42;41.62;101857.59;41353945;28;20088;-72
2024/01/10 13:34:11;;;;;;;9.75;6.50;;;;;;;22.34;41.18;101844.81;41345417;28;20053;-72
2024/01/10 13:54:11;;;;;;;7.60;6.00;;;;;;;22.20;41.54;101835.94;41319280;28;20081;-73
2024/01/10 14:14:11;;;;;;;6.97;5.47;;;;;;;22.00;41.30;101838.88;41339998;28;20046;-70
2024/01/10 14:34:12;;;;;;;7.13;5.57;;;;;;;21.85;41.24;101840.59;41354325;28;20049;-72
2024/01/10 14:54:12;;;;;;;6.90;5.15;;;;;;;21.70;40.41;101832.66;41350058;28;20121;-72
2024/01/10 15:14:13;;;;;;;8.25;5.32;;;;;;;21.50;41.30;101848.69;41356054;28;20065;-72
2024/01/10 15:34:13;;;;;;;7.32;5.40;;;;;;;21.28;41.57;101849.88;41378968;28;20064;-69
2024/01/10 15:54:15;;;;;;;8.57;5.57;;;;;;;21.23;41.40;101849.28;41377353;28;20541;-69
2024/01/10 16:14:19;;;;;;;7.82;4.93;;;;;;;21.13;41.21;101854.22;41365842;28;20129;-68
2024/01/10 16:34:20;;;;;;;11.57;5.95;;;;;;;20.99;41.72;101852.28;41363395;28;20046;-73
2024/01/10 16:54:23;;;;;;;9.18;5.60;;;;;;;21.00;41.92;101851.38;41398395;28;20177;-73
2024/01/10 17:14:23;;;;;;;8.80;5.72;;;;;;;20.97;42.55;101850.69;41372986;28;20141;-72
2024/01/10 17:34:23;;;;;;;10.95;6.43;;;;;;;20.99;42.54;101846.19;41371035;28;20128;-74
2024/01/10 17:54:24;;;;;;;10.35;7.70;;;;;;;20.93;44.07;101836.81;41373625;28;20040;-75
2024/01/10 18:14:24;;;;;;;10.88;8.13;;;;;;;20.90;44.20;101829.94;41359429;28;20035;-74
2024/01/10 18:34:25;;;;;;;9.48;7.25;;;;;;;20.72;44.18;101804.59;41331674;28;20042;-74
2024/01/10 18:54:25;;;;;;;37.60;12.25;;;;;;;21.02;48.09;101788.94;41381851;28;20050;-73
2024/01/10 19:14:26;;;;;;;31.58;14.85;;;;;;;21.04;52.35;101805.47;41442052;28;20042;-72
2024/01/10 19:34:28;;;;;;;30.50;14.10;;;;;;;21.02;50.99;101795.97;41395738;28;20042;-78
2024/01/10 19:54:29;;;;;;;22.65;11.52;;;;;;;20.87;49.77;101800.28;41410682;28;20046;-72
2024/01/10 20:14:29;;;;;;;24.23;11.38;;;;;;;20.83;48.72;101796.13;41254774;28;20038;-73
2024/01/10 20:34:32;;;;;;;24.33;13.00;;;;;;;19.81;45.73;101791.56;41295204;28;20062;-76
2024/01/10 20:54:33;;;;;;;21.60;12.10;;;;;;;20.27;47.59;101785.81;41401444;28;20124;-74
2024/01/10 21:14:34;;;;;;;17.92;11.48;;;;;;;20.21;48.36;101768.56;41415084;28;20054;-73
2024/01/10 21:34:35;;;;;;;16.05;11.15;;;;;;;20.18;48.55;101773.13;41411402;28;20038;-74
2024/01/10 21:54:35;;;;;;;19.67;10.88;;;;;;;20.09;48.61;101754.28;41413594;28;20053;-75
2024/01/10 22:14:37;;;;;;;16.38;10.73;;;;;;;20.07;48.68;101755.31;41417698;28;20739;-72
2024/01/10 22:34:37;;;;;;;16.92;11.45;;;;;;;19.98;48.61;101754.84;41427893;28;20092;-74
2024/01/10 22:54:38;;;;;;;17.40;12.13;;;;;;;19.93;48.33;101761.25;41479820;28;20124;-75
2024/01/10 23:14:38;;;;;;;17.73;12.70;;;;;;;19.88;48.32;101745.69;41454018;28;20390;-74
2024/01/10 23:34:41;;;;;;;18.45;12.98;;;;;;;19.87;48.37;101724.75;41441703;28;20069;-74
2024/01/10 23:54:41;;;;;;;21.23;13.50;;;;;;;19.86;48.46;101708.16;41419353;28;20034;-73
